Terminal Aerodrome Forecast
Issued by NWS

Home | Current Version | Previous Version | Text Only | Print | Product List | Glossary On
Versions: 1 2 3 4 5 6 7 8 9 10 11 12 13 14 15 16
000
FTUS45 KTFX 252300
TAFCTB
TAF
KCTB 252340Z 2600/2624 35011KT P6SM VCSH SCT030 OVC050
     FM260400 25008KT 5SM -SN BR SCT015 OVC030
     FM260900 15006KT 1SM -SN SCT008 OVC015
      TEMPO 2610/2614 1/2SM SN FZFG OVC008=

USA.gov is the U.S. government's official web portal to all federal, state and local government web resources and services.